sensor_id;sensor_type;location;lat;lon;timestamp;temperature;humidity
46732;DHT22;32477;51.474;5.696;2023-04-06T00:01:40;1.00;99.90
46732;DHT22;32477;51.474;5.696;2023-04-06T00:04:06;1.10;99.90
46732;DHT22;32477;51.474;5.696;2023-04-06T00:06:32;1.30;99.90
46732;DHT22;32477;51.474;5.696;2023-04-06T00:08:58;1.50;99.90
46732;DHT22;32477;51.474;5.696;2023-04-06T00:11:24;1.70;99.90
46732;DHT22;32477;51.474;5.696;2023-04-06T00:13:50;1.80;99.90
46732;DHT22;32477;51.474;5.696;2023-04-06T00:16:16;1.80;99.90
46732;DHT22;32477;51.474;5.696;2023-04-06T00:18:42;1.80;99.90
46732;DHT22;32477;51.474;5.696;2023-04-06T00:21:07;1.80;99.90
46732;DHT22;32477;51.474;5.696;2023-04-06T00:23:33;1.80;99.90
46732;DHT22;32477;51.474;5.696;2023-04-06T00:25:59;1.80;99.90
46732;DHT22;32477;51.474;5.696;2023-04-06T00:28:25;1.80;99.90
46732;DHT22;32477;51.474;5.696;2023-04-06T00:30:54;1.80;99.90
46732;DHT22;32477;51.474;5.696;2023-04-06T00:33:21;1.80;99.90
46732;DHT22;32477;51.474;5.696;2023-04-06T00:35:47;1.70;99.90
46732;DHT22;32477;51.474;5.696;2023-04-06T00:38:14;1.70;99.90
46732;DHT22;32477;51.474;5.696;2023-04-06T00:40:41;1.70;99.90
46732;DHT22;32477;51.474;5.696;2023-04-06T00:43:07;1.70;99.90
46732;DHT22;32477;51.474;5.696;2023-04-06T00:45:34;1.60;99.90
46732;DHT22;32477;51.474;5.696;2023-04-06T00:48:00;1.50;99.90
46732;DHT22;32477;51.474;5.696;2023-04-06T00:50:27;1.50;99.90
46732;DHT22;32477;51.474;5.696;2023-04-06T00:52:53;1.40;99.90
46732;DHT22;32477;51.474;5.696;2023-04-06T00:55:19;1.30;99.90
46732;DHT22;32477;51.474;5.696;2023-04-06T00:57:45;1.20;99.90
46732;DHT22;32477;51.474;5.696;2023-04-06T01:00:11;1.10;99.90
46732;DHT22;32477;51.474;5.696;2023-04-06T01:02:37;1.00;99.90
46732;DHT22;32477;51.474;5.696;2023-04-06T01:05:04;0.80;99.90
46732;DHT22;32477;51.474;5.696;2023-04-06T01:07:30;0.80;99.90
46732;DHT22;32477;51.474;5.696;2023-04-06T01:09:55;0.80;99.90
46732;DHT22;32477;51.474;5.696;2023-04-06T01:12:21;0.80;99.90
46732;DHT22;32477;51.474;5.696;2023-04-06T01:14:47;0.60;99.90
46732;DHT22;32477;51.474;5.696;2023-04-06T01:17:13;0.60;99.90
46732;DHT22;32477;51.474;5.696;2023-04-06T01:19:39;0.50;99.90
46732;DHT22;32477;51.474;5.696;2023-04-06T01:22:06;0.60;99.90
46732;DHT22;32477;51.474;5.696;2023-04-06T01:24:32;0.60;99.90
46732;DHT22;32477;51.474;5.696;2023-04-06T01:26:57;0.80;99.90
46732;DHT22;32477;51.474;5.696;2023-04-06T01:29:23;0.80;99.90
46732;DHT22;32477;51.474;5.696;2023-04-06T01:31:49;0.90;99.90
46732;DHT22;32477;51.474;5.696;2023-04-06T01:34:15;0.80;99.90
46732;DHT22;32477;51.474;5.696;2023-04-06T01:36:41;0.80;99.90
46732;DHT22;32477;51.474;5.696;2023-04-06T01:39:07;0.70;99.90
46732;DHT22;32477;51.474;5.696;2023-04-06T01:41:33;0.70;99.90
46732;DHT22;32477;51.474;5.696;2023-04-06T01:43:58;0.80;99.90
46732;DHT22;32477;51.474;5.696;2023-04-06T01:46:24;0.80;99.90
46732;DHT22;32477;51.474;5.696;2023-04-06T01:48:50;1.00;99.90
46732;DHT22;32477;51.474;5.696;2023-04-06T01:51:16;1.20;99.90
46732;DHT22;32477;51.474;5.696;2023-04-06T01:53:41;1.30;99.90
46732;DHT22;32477;51.474;5.696;2023-04-06T01:56:07;1.50;99.90
46732;DHT22;32477;51.474;5.696;2023-04-06T01:58:33;1.60;99.90
46732;DHT22;32477;51.474;5.696;2023-04-06T02:00:59;1.70;99.90
46732;DHT22;32477;51.474;5.696;2023-04-06T02:03:24;1.80;99.90
46732;DHT22;32477;51.474;5.696;2023-04-06T02:05:50;1.90;99.90
46732;DHT22;32477;51.474;5.696;2023-04-06T02:08:16;1.90;99.90
46732;DHT22;32477;51.474;5.696;2023-04-06T02:10:41;1.90;99.90
46732;DHT22;32477;51.474;5.696;2023-04-06T02:13:07;2.00;99.90
46732;DHT22;32477;51.474;5.696;2023-04-06T02:15:33;2.00;99.90
46732;DHT22;32477;51.474;5.696;2023-04-06T02:17:59;2.00;99.90
46732;DHT22;32477;51.474;5.696;2023-04-06T02:20:25;2.10;99.90
46732;DHT22;32477;51.474;5.696;2023-04-06T02:22:51;2.20;99.90
46732;DHT22;32477;51.474;5.696;2023-04-06T02:25:16;2.20;99.90
46732;DHT22;32477;51.474;5.696;2023-04-06T02:27:42;2.30;99.90
46732;DHT22;32477;51.474;5.696;2023-04-06T02:30:08;2.40;99.90
46732;DHT22;32477;51.474;5.696;2023-04-06T02:32:34;2.50;99.90
46732;DHT22;32477;51.474;5.696;2023-04-06T02:35:00;2.60;99.90
46732;DHT22;32477;51.474;5.696;2023-04-06T02:37:25;2.60;99.90
46732;DHT22;32477;51.474;5.696;2023-04-06T02:39:51;2.70;99.90
46732;DHT22;32477;51.474;5.696;2023-04-06T02:42:17;2.80;99.90
46732;DHT22;32477;51.474;5.696;2023-04-06T02:44:43;2.90;99.90
46732;DHT22;32477;51.474;5.696;2023-04-06T02:47:09;2.90;99.90
46732;DHT22;32477;51.474;5.696;2023-04-06T02:49:35;3.00;99.90
46732;DHT22;32477;51.474;5.696;2023-04-06T02:52:02;3.00;99.90
46732;DHT22;32477;51.474;5.696;2023-04-06T02:54:27;3.00;99.90
46732;DHT22;32477;51.474;5.696;2023-04-06T02:56:53;3.00;99.90
46732;DHT22;32477;51.474;5.696;2023-04-06T02:59:19;3.10;99.90
46732;DHT22;32477;51.474;5.696;2023-04-06T03:01:44;3.10;99.90
46732;DHT22;32477;51.474;5.696;2023-04-06T03:04:10;3.10;99.90
46732;DHT22;32477;51.474;5.696;2023-04-06T03:06:36;3.10;99.90
46732;DHT22;32477;51.474;5.696;2023-04-06T03:09:02;3.10;99.90
46732;DHT22;32477;51.474;5.696;2023-04-06T03:11:28;3.10;99.90
46732;DHT22;32477;51.474;5.696;2023-04-06T03:13:53;3.20;99.90
46732;DHT22;32477;51.474;5.696;2023-04-06T03:16:19;3.30;99.90
46732;DHT22;32477;51.474;5.696;2023-04-06T03:18:45;3.30;99.90
46732;DHT22;32477;51.474;5.696;2023-04-06T03:21:12;3.30;99.90
46732;DHT22;32477;51.474;5.696;2023-04-06T03:23:38;3.30;99.90
46732;DHT22;32477;51.474;5.696;2023-04-06T03:26:04;3.40;99.90
46732;DHT22;32477;51.474;5.696;2023-04-06T03:28:29;3.50;99.90
46732;DHT22;32477;51.474;5.696;2023-04-06T03:30:55;3.40;99.90
46732;DHT22;32477;51.474;5.696;2023-04-06T03:33:21;3.50;99.90
46732;DHT22;32477;51.474;5.696;2023-04-06T03:35:46;3.60;99.90
46732;DHT22;32477;51.474;5.696;2023-04-06T03:38:12;3.60;99.90
46732;DHT22;32477;51.474;5.696;2023-04-06T03:40:38;3.60;99.90
46732;DHT22;32477;51.474;5.696;2023-04-06T03:43:04;3.60;99.90
46732;DHT22;32477;51.474;5.696;2023-04-06T03:45:33;3.60;99.90
46732;DHT22;32477;51.474;5.696;2023-04-06T03:47:58;3.60;99.90
46732;DHT22;32477;51.474;5.696;2023-04-06T03:50:24;3.60;99.90
46732;DHT22;32477;51.474;5.696;2023-04-06T03:52:50;3.70;99.90
46732;DHT22;32477;51.474;5.696;2023-04-06T03:55:16;3.70;99.90
46732;DHT22;32477;51.474;5.696;2023-04-06T03:57:41;3.70;99.90
46732;DHT22;32477;51.474;5.696;2023-04-06T04:00:08;3.70;99.90
46732;DHT22;32477;51.474;5.696;2023-04-06T04:02:34;3.70;99.90
46732;DHT22;32477;51.474;5.696;2023-04-06T04:05:09;3.70;99.90
46732;DHT22;32477;51.474;5.696;2023-04-06T04:07:35;3.70;99.90
46732;DHT22;32477;51.474;5.696;2023-04-06T04:10:01;3.70;99.90
46732;DHT22;32477;51.474;5.696;2023-04-06T04:12:30;3.80;99.90
46732;DHT22;32477;51.474;5.696;2023-04-06T04:14:56;3.80;99.90
46732;DHT22;32477;51.474;5.696;2023-04-06T04:17:22;3.80;99.90
46732;DHT22;32477;51.474;5.696;2023-04-06T04:19:47;3.70;99.90
46732;DHT22;32477;51.474;5.696;2023-04-06T04:22:13;3.70;99.90
46732;DHT22;32477;51.474;5.696;2023-04-06T04:24:38;3.70;99.90
46732;DHT22;32477;51.474;5.696;2023-04-06T04:27:04;3.70;99.90
46732;DHT22;32477;51.474;5.696;2023-04-06T04:29:30;3.60;99.90
46732;DHT22;32477;51.474;5.696;2023-04-06T04:31:56;3.60;99.90
46732;DHT22;32477;51.474;5.696;2023-04-06T04:34:22;3.70;99.90
46732;DHT22;32477;51.474;5.696;2023-04-06T04:36:51;3.60;99.90
46732;DHT22;32477;51.474;5.696;2023-04-06T04:39:16;3.70;99.90
46732;DHT22;32477;51.474;5.696;2023-04-06T04:41:42;3.70;99.90
46732;DHT22;32477;51.474;5.696;2023-04-06T04:44:08;3.70;99.90
46732;DHT22;32477;51.474;5.696;2023-04-06T04:46:33;3.60;99.90
46732;DHT22;32477;51.474;5.696;2023-04-06T04:48:59;3.60;99.90
46732;DHT22;32477;51.474;5.696;2023-04-06T04:51:25;3.70;99.90
46732;DHT22;32477;51.474;5.696;2023-04-06T04:53:50;3.70;99.90
46732;DHT22;32477;51.474;5.696;2023-04-06T04:56:16;3.70;99.90
46732;DHT22;32477;51.474;5.696;2023-04-06T04:58:42;3.70;99.90
46732;DHT22;32477;51.474;5.696;2023-04-06T05:01:08;3.60;99.90
46732;DHT22;32477;51.474;5.696;2023-04-06T05:03:34;3.60;99.90
46732;DHT22;32477;51.474;5.696;2023-04-06T05:06:01;3.60;99.90
46732;DHT22;32477;51.474;5.696;2023-04-06T05:08:26;3.60;99.90
46732;DHT22;32477;51.474;5.696;2023-04-06T05:10:52;3.60;99.90
46732;DHT22;32477;51.474;5.696;2023-04-06T05:13:18;3.60;99.90
46732;DHT22;32477;51.474;5.696;2023-04-06T05:15:43;3.60;99.90
46732;DHT22;32477;51.474;5.696;2023-04-06T05:18:10;3.50;99.90
46732;DHT22;32477;51.474;5.696;2023-04-06T05:20:37;3.60;99.90
46732;DHT22;32477;51.474;5.696;2023-04-06T05:23:03;3.60;99.90
46732;DHT22;32477;51.474;5.696;2023-04-06T05:25:29;3.60;99.90
46732;DHT22;32477;51.474;5.696;2023-04-06T05:27:55;3.70;99.90
46732;DHT22;32477;51.474;5.696;2023-04-06T05:30:20;3.70;99.90
46732;DHT22;32477;51.474;5.696;2023-04-06T05:32:46;3.80;99.90
46732;DHT22;32477;51.474;5.696;2023-04-06T05:35:12;3.80;99.90
46732;DHT22;32477;51.474;5.696;2023-04-06T05:37:39;3.90;99.90
46732;DHT22;32477;51.474;5.696;2023-04-06T05:40:05;3.90;99.90
46732;DHT22;32477;51.474;5.696;2023-04-06T05:42:36;3.90;99.90
46732;DHT22;32477;51.474;5.696;2023-04-06T05:45:04;4.10;99.90
46732;DHT22;32477;51.474;5.696;2023-04-06T05:47:30;4.10;99.90
46732;DHT22;32477;51.474;5.696;2023-04-06T05:49:58;4.20;99.90
46732;DHT22;32477;51.474;5.696;2023-04-06T05:52:23;4.20;99.90
46732;DHT22;32477;51.474;5.696;2023-04-06T05:54:49;4.30;99.90
46732;DHT22;32477;51.474;5.696;2023-04-06T05:57:15;4.30;99.90
46732;DHT22;32477;51.474;5.696;2023-04-06T05:59:42;4.40;99.90
46732;DHT22;32477;51.474;5.696;2023-04-06T06:02:08;4.50;99.90
46732;DHT22;32477;51.474;5.696;2023-04-06T06:04:33;4.60;99.90
46732;DHT22;32477;51.474;5.696;2023-04-06T06:06:59;4.60;99.90
46732;DHT22;32477;51.474;5.696;2023-04-06T06:09:25;4.70;99.90
46732;DHT22;32477;51.474;5.696;2023-04-06T06:11:51;4.90;99.90
46732;DHT22;32477;51.474;5.696;2023-04-06T06:14:17;5.20;99.90
46732;DHT22;32477;51.474;5.696;2023-04-06T06:16:43;5.20;99.90
46732;DHT22;32477;51.474;5.696;2023-04-06T06:19:09;5.20;99.90
46732;DHT22;32477;51.474;5.696;2023-04-06T06:21:34;5.40;99.90
46732;DHT22;32477;51.474;5.696;2023-04-06T06:24:01;5.50;99.90
46732;DHT22;32477;51.474;5.696;2023-04-06T06:26:27;5.50;99.90
46732;DHT22;32477;51.474;5.696;2023-04-06T06:28:58;5.50;99.90
46732;DHT22;32477;51.474;5.696;2023-04-06T06:31:24;5.50;99.90
46732;DHT22;32477;51.474;5.696;2023-04-06T06:33:50;5.60;99.90
46732;DHT22;32477;51.474;5.696;2023-04-06T06:36:17;5.70;99.90
46732;DHT22;32477;51.474;5.696;2023-04-06T06:38:44;5.80;99.90
46732;DHT22;32477;51.474;5.696;2023-04-06T06:41:10;5.80;99.90
46732;DHT22;32477;51.474;5.696;2023-04-06T06:43:36;5.90;99.90
46732;DHT22;32477;51.474;5.696;2023-04-06T06:46:02;6.00;99.90
46732;DHT22;32477;51.474;5.696;2023-04-06T06:48:28;6.20;99.90
46732;DHT22;32477;51.474;5.696;2023-04-06T06:50:54;6.30;99.90
46732;DHT22;32477;51.474;5.696;2023-04-06T06:53:20;6.30;99.90
46732;DHT22;32477;51.474;5.696;2023-04-06T06:55:45;6.40;99.90
46732;DHT22;32477;51.474;5.696;2023-04-06T06:58:11;6.50;99.90
46732;DHT22;32477;51.474;5.696;2023-04-06T07:00:37;6.50;99.90
46732;DHT22;32477;51.474;5.696;2023-04-06T07:03:03;6.60;99.90
46732;DHT22;32477;51.474;5.696;2023-04-06T07:05:28;6.60;99.90
46732;DHT22;32477;51.474;5.696;2023-04-06T07:07:55;6.60;99.90
46732;DHT22;32477;51.474;5.696;2023-04-06T07:10:21;6.60;99.90
46732;DHT22;32477;51.474;5.696;2023-04-06T07:12:47;6.70;99.90
46732;DHT22;32477;51.474;5.696;2023-04-06T07:15:13;6.70;99.90
46732;DHT22;32477;51.474;5.696;2023-04-06T07:17:39;6.70;99.90
46732;DHT22;32477;51.474;5.696;2023-04-06T07:20:06;6.80;99.90
46732;DHT22;32477;51.474;5.696;2023-04-06T07:22:32;6.90;99.90
46732;DHT22;32477;51.474;5.696;2023-04-06T07:24:58;7.00;99.90
46732;DHT22;32477;51.474;5.696;2023-04-06T07:27:24;7.10;99.90
46732;DHT22;32477;51.474;5.696;2023-04-06T07:29:50;7.10;99.90
46732;DHT22;32477;51.474;5.696;2023-04-06T07:32:15;7.20;99.90
46732;DHT22;32477;51.474;5.696;2023-04-06T07:34:41;7.10;99.90
46732;DHT22;32477;51.474;5.696;2023-04-06T07:37:07;7.30;99.90
46732;DHT22;32477;51.474;5.696;2023-04-06T07:39:34;7.30;99.90
46732;DHT22;32477;51.474;5.696;2023-04-06T07:42:00;7.30;99.90
46732;DHT22;32477;51.474;5.696;2023-04-06T07:44:29;7.40;99.90
46732;DHT22;32477;51.474;5.696;2023-04-06T07:46:54;7.50;99.90
46732;DHT22;32477;51.474;5.696;2023-04-06T07:49:20;7.60;99.90
46732;DHT22;32477;51.474;5.696;2023-04-06T07:51:46;7.70;99.90
46732;DHT22;32477;51.474;5.696;2023-04-06T07:54:12;7.80;99.90
46732;DHT22;32477;51.474;5.696;2023-04-06T07:56:37;7.80;99.90
46732;DHT22;32477;51.474;5.696;2023-04-06T07:59:03;7.80;99.90
46732;DHT22;32477;51.474;5.696;2023-04-06T08:01:29;7.80;99.90
46732;DHT22;32477;51.474;5.696;2023-04-06T08:03:56;8.00;99.90
46732;DHT22;32477;51.474;5.696;2023-04-06T08:06:22;8.00;99.90
46732;DHT22;32477;51.474;5.696;2023-04-06T08:08:47;8.20;99.90
46732;DHT22;32477;51.474;5.696;2023-04-06T08:11:13;8.20;99.90
46732;DHT22;32477;51.474;5.696;2023-04-06T08:13:39;8.40;99.90
46732;DHT22;32477;51.474;5.696;2023-04-06T08:16:05;8.40;99.90
46732;DHT22;32477;51.474;5.696;2023-04-06T08:18:31;8.50;99.90
46732;DHT22;32477;51.474;5.696;2023-04-06T08:20:56;8.60;99.90
46732;DHT22;32477;51.474;5.696;2023-04-06T08:23:22;8.70;99.90
46732;DHT22;32477;51.474;5.696;2023-04-06T08:25:48;8.70;99.90
46732;DHT22;32477;51.474;5.696;2023-04-06T08:28:14;8.50;99.90
46732;DHT22;32477;51.474;5.696;2023-04-06T08:30:42;8.60;99.90
46732;DHT22;32477;51.474;5.696;2023-04-06T08:33:09;8.60;99.90
46732;DHT22;32477;51.474;5.696;2023-04-06T08:35:34;8.70;99.90
46732;DHT22;32477;51.474;5.696;2023-04-06T08:38:00;8.90;99.90
46732;DHT22;32477;51.474;5.696;2023-04-06T08:40:27;9.00;99.90
46732;DHT22;32477;51.474;5.696;2023-04-06T08:42:55;9.10;99.90
46732;DHT22;32477;51.474;5.696;2023-04-06T08:45:22;9.10;99.90
46732;DHT22;32477;51.474;5.696;2023-04-06T08:47:51;9.20;99.90
46732;DHT22;32477;51.474;5.696;2023-04-06T08:50:18;9.20;99.90
46732;DHT22;32477;51.474;5.696;2023-04-06T08:52:47;9.30;99.90
46732;DHT22;32477;51.474;5.696;2023-04-06T08:55:13;9.40;99.90
46732;DHT22;32477;51.474;5.696;2023-04-06T08:57:38;9.50;99.90
46732;DHT22;32477;51.474;5.696;2023-04-06T09:00:08;9.50;99.90
46732;DHT22;32477;51.474;5.696;2023-04-06T09:02:39;9.50;99.90
46732;DHT22;32477;51.474;5.696;2023-04-06T09:05:08;9.50;99.90
46732;DHT22;32477;51.474;5.696;2023-04-06T09:07:35;9.70;99.90
46732;DHT22;32477;51.474;5.696;2023-04-06T09:10:01;9.80;99.90
46732;DHT22;32477;51.474;5.696;2023-04-06T09:12:29;9.80;99.90
46732;DHT22;32477;51.474;5.696;2023-04-06T09:14:56;10.00;99.90
46732;DHT22;32477;51.474;5.696;2023-04-06T09:17:23;9.90;99.90
46732;DHT22;32477;51.474;5.696;2023-04-06T09:19:50;10.00;99.90
46732;DHT22;32477;51.474;5.696;2023-04-06T09:22:16;10.20;99.90
46732;DHT22;32477;51.474;5.696;2023-04-06T09:24:50;10.20;99.90
46732;DHT22;32477;51.474;5.696;2023-04-06T09:27:16;10.30;99.90
46732;DHT22;32477;51.474;5.696;2023-04-06T09:29:43;10.40;99.90
46732;DHT22;32477;51.474;5.696;2023-04-06T09:32:10;10.60;99.90
46732;DHT22;32477;51.474;5.696;2023-04-06T09:34:39;10.70;99.90
46732;DHT22;32477;51.474;5.696;2023-04-06T09:37:18;10.90;99.90
46732;DHT22;32477;51.474;5.696;2023-04-06T09:39:45;11.10;99.90
46732;DHT22;32477;51.474;5.696;2023-04-06T09:42:31;11.30;99.90
46732;DHT22;32477;51.474;5.696;2023-04-06T09:44:57;11.40;99.90
46732;DHT22;32477;51.474;5.696;2023-04-06T09:47:24;11.60;99.90
46732;DHT22;32477;51.474;5.696;2023-04-06T09:49:58;11.70;99.90
46732;DHT22;32477;51.474;5.696;2023-04-06T09:52:38;11.70;99.90
46732;DHT22;32477;51.474;5.696;2023-04-06T09:55:06;12.00;99.90
46732;DHT22;32477;51.474;5.696;2023-04-06T09:58:05;12.00;99.90
46732;DHT22;32477;51.474;5.696;2023-04-06T10:00:34;12.00;99.90
46732;DHT22;32477;51.474;5.696;2023-04-06T10:03:19;12.30;99.90
46732;DHT22;32477;51.474;5.696;2023-04-06T10:05:54;12.40;99.90
46732;DHT22;32477;51.474;5.696;2023-04-06T10:08:24;12.30;99.90
46732;DHT22;32477;51.474;5.696;2023-04-06T10:10:54;12.30;99.90
46732;DHT22;32477;51.474;5.696;2023-04-06T10:13:20;12.40;99.90
46732;DHT22;32477;51.474;5.696;2023-04-06T10:15:47;12.30;99.90
46732;DHT22;32477;51.474;5.696;2023-04-06T10:18:13;12.30;99.90
46732;DHT22;32477;51.474;5.696;2023-04-06T10:20:49;12.20;99.90
46732;DHT22;32477;51.474;5.696;2023-04-06T10:23:22;12.00;99.90
46732;DHT22;32477;51.474;5.696;2023-04-06T10:25:57;11.80;99.90
46732;DHT22;32477;51.474;5.696;2023-04-06T10:28:24;11.70;99.90
46732;DHT22;32477;51.474;5.696;2023-04-06T10:31:00;11.60;99.90
46732;DHT22;32477;51.474;5.696;2023-04-06T10:33:27;11.50;99.90
46732;DHT22;32477;51.474;5.696;2023-04-06T10:35:53;11.50;99.90
46732;DHT22;32477;51.474;5.696;2023-04-06T10:38:19;11.40;99.90
46732;DHT22;32477;51.474;5.696;2023-04-06T10:40:52;11.10;99.90
46732;DHT22;32477;51.474;5.696;2023-04-06T10:43:20;10.90;99.90
46732;DHT22;32477;51.474;5.696;2023-04-06T10:45:55;10.70;99.90
46732;DHT22;32477;51.474;5.696;2023-04-06T10:48:21;10.50;99.90
46732;DHT22;32477;51.474;5.696;2023-04-06T10:50:48;10.40;99.90
46732;DHT22;32477;51.474;5.696;2023-04-06T10:53:27;10.60;99.90
46732;DHT22;32477;51.474;5.696;2023-04-06T10:55:55;10.60;99.90
46732;DHT22;32477;51.474;5.696;2023-04-06T10:58:25;10.50;99.90
46732;DHT22;32477;51.474;5.696;2023-04-06T11:00:51;10.30;99.90
46732;DHT22;32477;51.474;5.696;2023-04-06T11:03:18;10.10;99.90
46732;DHT22;32477;51.474;5.696;2023-04-06T11:05:47;10.10;99.90
46732;DHT22;32477;51.474;5.696;2023-04-06T11:08:24;10.00;99.90
46732;DHT22;32477;51.474;5.696;2023-04-06T11:10:50;10.00;99.90
46732;DHT22;32477;51.474;5.696;2023-04-06T11:13:15;9.90;99.90
46732;DHT22;32477;51.474;5.696;2023-04-06T11:15:41;9.90;99.90
46732;DHT22;32477;51.474;5.696;2023-04-06T11:18:07;9.80;99.90
46732;DHT22;32477;51.474;5.696;2023-04-06T11:20:33;9.70;99.90
46732;DHT22;32477;51.474;5.696;2023-04-06T11:22:58;9.60;99.90
46732;DHT22;32477;51.474;5.696;2023-04-06T11:25:25;9.60;99.90
46732;DHT22;32477;51.474;5.696;2023-04-06T11:27:55;9.50;99.90
46732;DHT22;32477;51.474;5.696;2023-04-06T11:30:21;9.40;99.90
46732;DHT22;32477;51.474;5.696;2023-04-06T11:32:46;9.10;99.90
46732;DHT22;32477;51.474;5.696;2023-04-06T11:35:23;8.90;99.90
46732;DHT22;32477;51.474;5.696;2023-04-06T11:37:51;8.90;99.90
46732;DHT22;32477;51.474;5.696;2023-04-06T11:40:23;8.80;99.90
46732;DHT22;32477;51.474;5.696;2023-04-06T11:42:54;8.70;99.90
46732;DHT22;32477;51.474;5.696;2023-04-06T11:45:20;8.70;99.90
46732;DHT22;32477;51.474;5.696;2023-04-06T11:47:55;8.60;99.90
46732;DHT22;32477;51.474;5.696;2023-04-06T11:50:21;8.60;99.90
46732;DHT22;32477;51.474;5.696;2023-04-06T11:52:58;8.50;99.90
46732;DHT22;32477;51.474;5.696;2023-04-06T11:55:24;8.40;99.90
46732;DHT22;32477;51.474;5.696;2023-04-06T11:57:50;8.40;99.90
46732;DHT22;32477;51.474;5.696;2023-04-06T12:00:17;8.50;99.90
46732;DHT22;32477;51.474;5.696;2023-04-06T12:02:46;8.50;99.90
46732;DHT22;32477;51.474;5.696;2023-04-06T12:05:12;8.60;99.90
46732;DHT22;32477;51.474;5.696;2023-04-06T12:07:38;8.60;99.90
46732;DHT22;32477;51.474;5.696;2023-04-06T12:10:04;8.70;99.90
46732;DHT22;32477;51.474;5.696;2023-04-06T12:12:30;8.80;99.90
46732;DHT22;32477;51.474;5.696;2023-04-06T12:14:56;8.90;99.90
46732;DHT22;32477;51.474;5.696;2023-04-06T12:17:22;8.90;99.90
46732;DHT22;32477;51.474;5.696;2023-04-06T12:19:48;9.00;99.90
46732;DHT22;32477;51.474;5.696;2023-04-06T12:22:14;9.00;99.90
46732;DHT22;32477;51.474;5.696;2023-04-06T12:24:40;9.00;99.90
46732;DHT22;32477;51.474;5.696;2023-04-06T12:27:06;9.10;99.90
46732;DHT22;32477;51.474;5.696;2023-04-06T12:29:32;9.20;99.90
46732;DHT22;32477;51.474;5.696;2023-04-06T12:31:58;9.10;99.90
46732;DHT22;32477;51.474;5.696;2023-04-06T12:34:23;9.00;99.90
46732;DHT22;32477;51.474;5.696;2023-04-06T12:36:49;9.00;99.90
46732;DHT22;32477;51.474;5.696;2023-04-06T12:39:15;9.00;99.90
46732;DHT22;32477;51.474;5.696;2023-04-06T12:41:42;9.00;99.90
46732;DHT22;32477;51.474;5.696;2023-04-06T12:44:07;9.00;99.90
46732;DHT22;32477;51.474;5.696;2023-04-06T12:46:33;8.80;99.90
46732;DHT22;32477;51.474;5.696;2023-04-06T12:48:59;8.70;99.90
46732;DHT22;32477;51.474;5.696;2023-04-06T12:51:27;8.80;99.90
46732;DHT22;32477;51.474;5.696;2023-04-06T12:53:53;8.80;99.90
46732;DHT22;32477;51.474;5.696;2023-04-06T12:56:19;8.80;99.90
46732;DHT22;32477;51.474;5.696;2023-04-06T12:58:46;8.80;99.90
46732;DHT22;32477;51.474;5.696;2023-04-06T13:01:12;8.70;99.90
46732;DHT22;32477;51.474;5.696;2023-04-06T13:03:39;8.80;99.90
46732;DHT22;32477;51.474;5.696;2023-04-06T13:06:05;8.80;99.90
46732;DHT22;32477;51.474;5.696;2023-04-06T13:08:30;8.90;99.90
46732;DHT22;32477;51.474;5.696;2023-04-06T13:10:56;8.80;99.90
46732;DHT22;32477;51.474;5.696;2023-04-06T13:13:27;8.80;99.90
46732;DHT22;32477;51.474;5.696;2023-04-06T13:16:04;8.90;99.90
46732;DHT22;32477;51.474;5.696;2023-04-06T13:18:30;9.00;99.90
46732;DHT22;32477;51.474;5.696;2023-04-06T13:20:57;8.90;99.90
46732;DHT22;32477;51.474;5.696;2023-04-06T13:23:23;9.00;99.90
46732;DHT22;32477;51.474;5.696;2023-04-06T13:25:57;9.10;99.90
46732;DHT22;32477;51.474;5.696;2023-04-06T13:28:24;9.10;99.90
46732;DHT22;32477;51.474;5.696;2023-04-06T13:30:49;9.00;99.90
46732;DHT22;32477;51.474;5.696;2023-04-06T13:33:15;9.00;99.90
46732;DHT22;32477;51.474;5.696;2023-04-06T13:35:45;9.00;99.90
46732;DHT22;32477;51.474;5.696;2023-04-06T13:38:11;8.90;99.90
46732;DHT22;32477;51.474;5.696;2023-04-06T13:40:39;8.90;99.90
46732;DHT22;32477;51.474;5.696;2023-04-06T13:43:05;8.90;99.90
46732;DHT22;32477;51.474;5.696;2023-04-06T13:45:31;8.90;99.90
46732;DHT22;32477;51.474;5.696;2023-04-06T13:47:57;8.90;99.90
46732;DHT22;32477;51.474;5.696;2023-04-06T13:50:25;8.80;99.90
46732;DHT22;32477;51.474;5.696;2023-04-06T13:52:50;8.90;99.90
46732;DHT22;32477;51.474;5.696;2023-04-06T13:55:16;8.90;99.90
46732;DHT22;32477;51.474;5.696;2023-04-06T13:57:42;8.90;99.90
46732;DHT22;32477;51.474;5.696;2023-04-06T14:00:08;8.90;99.90
46732;DHT22;32477;51.474;5.696;2023-04-06T14:02:34;8.80;99.90
46732;DHT22;32477;51.474;5.696;2023-04-06T14:05:00;8.80;99.90
46732;DHT22;32477;51.474;5.696;2023-04-06T14:07:26;8.80;99.90
46732;DHT22;32477;51.474;5.696;2023-04-06T14:09:52;8.70;99.90
46732;DHT22;32477;51.474;5.696;2023-04-06T14:12:17;8.60;99.90
46732;DHT22;32477;51.474;5.696;2023-04-06T14:14:43;8.60;99.90
46732;DHT22;32477;51.474;5.696;2023-04-06T14:17:09;8.50;99.90
46732;DHT22;32477;51.474;5.696;2023-04-06T14:19:35;8.50;99.90
46732;DHT22;32477;51.474;5.696;2023-04-06T14:22:01;8.50;99.90
46732;DHT22;32477;51.474;5.696;2023-04-06T14:24:27;8.40;99.90
46732;DHT22;32477;51.474;5.696;2023-04-06T14:26:53;8.40;99.90
46732;DHT22;32477;51.474;5.696;2023-04-06T14:29:18;8.40;99.90
46732;DHT22;32477;51.474;5.696;2023-04-06T14:31:48;8.30;99.90
46732;DHT22;32477;51.474;5.696;2023-04-06T14:34:13;8.40;99.90
46732;DHT22;32477;51.474;5.696;2023-04-06T14:36:40;8.40;99.90
46732;DHT22;32477;51.474;5.696;2023-04-06T14:39:06;8.40;99.90
46732;DHT22;32477;51.474;5.696;2023-04-06T14:41:32;8.40;99.90
46732;DHT22;32477;51.474;5.696;2023-04-06T14:43:59;8.40;99.90
46732;DHT22;32477;51.474;5.696;2023-04-06T14:46:25;8.30;99.90
46732;DHT22;32477;51.474;5.696;2023-04-06T14:48:55;8.30;99.90
46732;DHT22;32477;51.474;5.696;2023-04-06T14:51:22;8.40;99.90
46732;DHT22;32477;51.474;5.696;2023-04-06T14:53:49;8.40;99.90
46732;DHT22;32477;51.474;5.696;2023-04-06T14:56:19;8.30;99.90
46732;DHT22;32477;51.474;5.696;2023-04-06T14:58:45;8.30;99.90
46732;DHT22;32477;51.474;5.696;2023-04-06T15:01:11;8.40;99.90
46732;DHT22;32477;51.474;5.696;2023-04-06T15:03:37;8.30;99.90
46732;DHT22;32477;51.474;5.696;2023-04-06T15:06:03;8.30;99.90
46732;DHT22;32477;51.474;5.696;2023-04-06T15:08:28;8.30;99.90
46732;DHT22;32477;51.474;5.696;2023-04-06T15:10:58;8.30;99.90
46732;DHT22;32477;51.474;5.696;2023-04-06T15:13:24;8.30;99.90
46732;DHT22;32477;51.474;5.696;2023-04-06T15:15:50;8.30;99.90
46732;DHT22;32477;51.474;5.696;2023-04-06T15:18:16;8.30;99.90
46732;DHT22;32477;51.474;5.696;2023-04-06T15:20:42;8.30;99.90
46732;DHT22;32477;51.474;5.696;2023-04-06T15:23:08;8.30;99.90
46732;DHT22;32477;51.474;5.696;2023-04-06T15:25:34;8.30;99.90
46732;DHT22;32477;51.474;5.696;2023-04-06T15:28:00;8.30;99.90
46732;DHT22;32477;51.474;5.696;2023-04-06T15:30:26;8.30;99.90
46732;DHT22;32477;51.474;5.696;2023-04-06T15:32:59;8.20;99.90
46732;DHT22;32477;51.474;5.696;2023-04-06T15:35:29;8.20;99.90
46732;DHT22;32477;51.474;5.696;2023-04-06T15:37:56;8.10;99.90
46732;DHT22;32477;51.474;5.696;2023-04-06T15:40:22;8.10;99.90
46732;DHT22;32477;51.474;5.696;2023-04-06T15:42:48;8.10;99.90